Hickory, Kentucky
Current Conditions -  °F | °C
As of 2:35 PM on Friday 31 Oct 2014 (Local Time) from KM25 Reporting Station
Clear Clear  
Wind Chill:   Ceiling: Unl
Heat Index:   Visibility: 10mi
Dew Point: -3°   Wind: 18mph
Humidity: 43%   Direction: 340°NNW
Pressure: 30.15"   Gusts: 31mph
Location:  36.82°N, 88.65°W
Report Text: KM25 311935Z AUTO 34016G27KT 10SM CLR 09/M03 A3015 RMK AO2
Loading
Personal Weather Stations






























Interactive Weather Map
Tropical Storm Tracking
New forecast layout! Learn more

10-Day Weather Forecast

Advertisements
Track Severe Weather on mobile